createdAt,value
2022-08-28T00:01:36.279Z,12.65
2022-08-28T00:03:40.710Z,11.80
2022-08-28T00:05:47.132Z,12.43
2022-08-28T00:07:53.529Z,11.55
2022-08-28T00:09:57.847Z,11.52
2022-08-28T00:12:04.972Z,10.85
2022-08-28T00:14:11.576Z,10.80
2022-08-28T00:16:16.187Z,10.60
2022-08-28T00:18:22.876Z,10.10
2022-08-28T00:20:28.791Z,10.55
2022-08-28T00:22:33.376Z,10.10
2022-08-28T00:24:42.683Z,9.43
2022-08-28T00:27:01.540Z,9.18
2022-08-28T00:29:07.176Z,10.20
2022-08-28T00:31:11.611Z,9.68
2022-08-28T00:33:28.306Z,9.93
2022-08-28T00:35:32.818Z,9.32
2022-08-28T00:37:42.080Z,8.52
2022-08-28T00:39:46.581Z,8.65
2022-08-28T00:41:57.747Z,7.93
2022-08-28T00:44:19.513Z,8.35
2022-08-28T00:46:25.807Z,8.18
2022-08-28T00:48:30.718Z,7.85
2022-08-28T00:50:56.766Z,8.23
2022-08-28T00:53:07.065Z,8.18
2022-08-28T00:55:14.985Z,8.85
2022-08-28T00:57:27.155Z,7.50
2022-08-28T00:59:34.347Z,7.10
2022-08-28T01:01:40.277Z,6.78
2022-08-28T01:03:47.047Z,6.97
2022-08-28T01:05:53.712Z,6.47
2022-08-28T01:07:59.747Z,6.63
2022-08-28T01:10:07.738Z,6.55
2022-08-28T01:12:22.320Z,6.07
2022-08-28T01:14:27.681Z,6.10
2022-08-28T01:16:34.538Z,5.38
2022-08-28T01:18:41.950Z,5.28
2022-08-28T01:20:55.405Z,6.05
2022-08-28T01:23:13.356Z,5.45
2022-08-28T01:25:20.597Z,5.68
2022-08-28T01:27:25.134Z,6.20
2022-08-28T01:29:30.824Z,6.55
2022-08-28T01:31:37.668Z,6.43
2022-08-28T01:33:42.763Z,6.10
2022-08-28T01:35:53.003Z,6.25
2022-08-28T01:37:59.451Z,6.25
2022-08-28T01:40:06.213Z,6.03
2022-08-28T01:42:12.738Z,5.95
2022-08-28T01:44:20.375Z,5.40
2022-08-28T01:46:25.269Z,5.85
2022-08-28T01:48:32.656Z,5.50
2022-08-28T01:50:39.039Z,5.10
2022-08-28T01:52:43.994Z,5.57
2022-08-28T01:54:49.838Z,5.30
2022-08-28T01:56:56.445Z,4.97
2022-08-28T01:59:02.725Z,5.18
2022-08-28T02:01:22.931Z,5.15
2022-08-28T02:03:29.299Z,4.78
2022-08-28T02:05:34.235Z,4.60
2022-08-28T02:07:39.926Z,4.60
2022-08-28T02:09:46.883Z,4.82
2022-08-28T02:11:51.294Z,4.07
2022-08-28T02:13:58.521Z,4.60
2022-08-28T02:16:07.349Z,4.53
2022-08-28T02:18:12.193Z,3.85
2022-08-28T02:20:18.673Z,4.00
2022-08-28T02:22:25.677Z,4.00
2022-08-28T02:24:30.506Z,3.90
2022-08-28T02:26:36.846Z,3.00
2022-08-28T02:28:43.755Z,3.50
2022-08-28T02:30:49.469Z,3.80
2022-08-28T02:32:54.936Z,2.80
2022-08-28T02:35:01.543Z,3.20
2022-08-28T02:37:08.883Z,3.25
2022-08-28T02:39:17.454Z,3.03
2022-08-28T02:41:22.889Z,3.35
2022-08-28T02:43:28.085Z,2.65
2022-08-28T02:45:34.917Z,3.03
2022-08-28T02:47:43.577Z,2.90
2022-08-28T02:49:48.299Z,2.53
2022-08-28T02:51:55.038Z,2.58
2022-08-28T02:54:01.903Z,2.67
2022-08-28T02:56:06.322Z,2.58
2022-08-28T02:58:13.527Z,2.22
2022-08-28T03:00:21.198Z,2.58
2022-08-28T03:02:26.002Z,2.83
2022-08-28T03:04:34.608Z,3.15
2022-08-28T03:06:41.044Z,3.70
2022-08-28T03:08:45.624Z,4.13
2022-08-28T03:10:52.071Z,3.20
2022-08-28T03:12:58.426Z,2.80
2022-08-28T03:15:02.836Z,3.00
2022-08-28T03:17:08.539Z,3.20
2022-08-28T03:19:15.150Z,2.80
2022-08-28T03:21:19.524Z,2.20
2022-08-28T03:23:29.450Z,2.30
2022-08-28T03:25:35.688Z,2.80
2022-08-28T03:27:40.482Z,2.40
2022-08-28T03:29:47.284Z,2.85
2022-08-28T03:31:53.792Z,2.40
2022-08-28T03:33:58.795Z,2.35
2022-08-28T03:36:05.702Z,2.60
2022-08-28T03:38:12.664Z,2.53
2022-08-28T03:40:20.998Z,2.45
2022-08-28T03:42:25.614Z,4.15
2022-08-28T03:44:32.933Z,3.75
2022-08-28T03:46:40.393Z,3.22
2022-08-28T03:48:45.315Z,2.22
2022-08-28T03:50:51.772Z,2.65
2022-08-28T03:52:57.448Z,2.63
2022-08-28T03:55:02.826Z,2.50
2022-08-28T03:57:09.795Z,2.88
2022-08-28T03:59:14.172Z,2.90
2022-08-28T04:01:21.969Z,2.75
2022-08-28T04:03:26.849Z,3.08
2022-08-28T04:05:31.567Z,2.88
2022-08-28T04:07:38.341Z,2.83
2022-08-28T04:09:45.170Z,2.70
2022-08-28T04:11:49.940Z,2.92
2022-08-28T04:13:56.975Z,2.75
2022-08-28T04:16:06.343Z,2.75
2022-08-28T04:18:11.910Z,2.63
2022-08-28T04:20:18.710Z,2.90
2022-08-28T04:22:25.022Z,2.28
2022-08-28T04:24:29.786Z,2.50
2022-08-28T04:26:39.731Z,3.05
2022-08-28T04:28:46.414Z,2.60
2022-08-28T04:30:58.030Z,2.45
2022-08-28T04:33:05.074Z,2.08
2022-08-28T04:35:11.930Z,1.83
2022-08-28T04:37:17.051Z,1.98
2022-08-28T04:39:23.683Z,2.00
2022-08-28T04:41:32.106Z,2.28
2022-08-28T04:43:36.490Z,1.83
2022-08-28T04:45:47.501Z,2.20
2022-08-28T04:47:53.726Z,2.05
2022-08-28T04:49:58.076Z,2.17
2022-08-28T04:52:02.825Z,1.73
2022-08-28T04:54:09.190Z,3.25
2022-08-28T04:56:14.832Z,2.35
2022-08-28T04:58:23.896Z,2.38
2022-08-28T05:00:30.966Z,2.10
2022-08-28T05:02:35.378Z,2.13
2022-08-28T05:04:40.933Z,2.10
2022-08-28T05:06:48.171Z,2.08
2022-08-28T05:08:52.494Z,2.10
2022-08-28T05:11:01.329Z,2.10
2022-08-28T05:13:08.723Z,2.15
2022-08-28T05:15:13.565Z,2.20
2022-08-28T05:17:23.469Z,2.45
2022-08-28T05:19:30.106Z,2.40
2022-08-28T05:21:34.542Z,2.30
2022-08-28T05:23:41.510Z,2.47
2022-08-28T05:25:48.856Z,2.10
2022-08-28T05:27:53.550Z,2.42
2022-08-28T05:30:02.288Z,2.10
2022-08-28T05:32:09.163Z,3.00
2022-08-28T05:34:13.748Z,2.00
2022-08-28T05:36:19.824Z,2.47
2022-08-28T05:38:24.843Z,2.30
2022-08-28T05:40:29.360Z,2.10
2022-08-28T05:42:38.965Z,2.33
2022-08-28T05:44:43.546Z,2.35
2022-08-28T05:46:49.299Z,2.10
2022-08-28T05:48:54.904Z,2.08
2022-08-28T05:51:18.661Z,2.30
2022-08-28T05:53:23.796Z,2.05
2022-08-28T05:55:30.313Z,1.85
2022-08-28T05:57:36.834Z,2.28
2022-08-28T05:59:41.224Z,2.05
2022-08-28T06:01:48.958Z,1.90
2022-08-28T06:04:02.441Z,2.03
2022-08-28T06:06:07.371Z,2.20
2022-08-28T06:08:13.065Z,2.15
2022-08-28T06:10:18.175Z,2.10
2022-08-28T06:12:23.588Z,2.63
2022-08-28T06:14:28.107Z,2.28
2022-08-28T06:16:36.012Z,2.40
2022-08-28T06:18:40.434Z,2.40
2022-08-28T06:20:48.291Z,2.80
2022-08-28T06:22:54.658Z,2.30
2022-08-28T06:24:59.262Z,2.25
2022-08-28T06:27:04.933Z,2.40
2022-08-28T06:29:12.387Z,2.22
2022-08-28T06:31:23.230Z,2.13
2022-08-28T06:33:29.709Z,2.33
2022-08-28T06:35:40.899Z,2.72
2022-08-28T06:37:45.750Z,2.33
2022-08-28T06:39:50.715Z,2.47
2022-08-28T06:41:57.015Z,2.10
2022-08-28T06:44:01.751Z,2.22
2022-08-28T06:46:08.320Z,2.38
2022-08-28T06:48:19.077Z,2.53
2022-08-28T06:50:24.353Z,2.40
2022-08-28T06:52:31.236Z,2.40
2022-08-28T06:54:37.631Z,2.50
2022-08-28T06:56:43.083Z,2.30
2022-08-28T06:58:50.107Z,2.17
2022-08-28T07:01:03.201Z,2.25
2022-08-28T07:05:13.984Z,2.00
2022-08-28T07:07:32.618Z,2.20
2022-08-28T07:09:37.102Z,2.00
2022-08-28T07:11:44.572Z,2.20
2022-08-28T07:13:49.843Z,1.75
2022-08-28T07:15:55.364Z,1.70
2022-08-28T07:18:01.957Z,2.15
2022-08-28T07:20:08.773Z,1.90
2022-08-28T07:22:13.097Z,2.00
2022-08-28T07:24:20.080Z,1.85
2022-08-28T07:26:27.289Z,2.03
2022-08-28T07:28:31.941Z,1.90
2022-08-28T07:30:36.299Z,2.10
2022-08-28T07:32:42.826Z,1.80
2022-08-28T07:34:47.186Z,1.90
2022-08-28T07:36:58.047Z,1.90
2022-08-28T07:39:06.050Z,2.03
2022-08-28T07:41:21.902Z,1.95
2022-08-28T07:43:40.415Z,2.30
2022-08-28T07:45:49.609Z,1.80
2022-08-28T07:47:54.013Z,1.80
2022-08-28T07:50:03.396Z,1.73
2022-08-28T07:52:08.860Z,2.13
2022-08-28T07:54:17.784Z,1.92
2022-08-28T07:56:23.847Z,1.67
2022-08-28T07:58:30.133Z,1.70
2022-08-28T08:00:34.867Z,1.70
2022-08-28T08:02:41.326Z,1.98
2022-08-28T08:04:47.620Z,2.05
2022-08-28T08:06:57.841Z,2.03
2022-08-28T08:09:05.229Z,1.88
2022-08-28T08:11:13.942Z,1.80
2022-08-28T08:13:21.034Z,1.92
2022-08-28T08:15:29.438Z,1.80
2022-08-28T08:17:37.451Z,2.10
2022-08-28T08:19:41.953Z,2.08
2022-08-28T08:21:53.402Z,2.00
2022-08-28T08:24:01.558Z,1.83
2022-08-28T08:26:08.405Z,1.92
2022-08-28T08:28:13.984Z,1.85
2022-08-28T08:30:18.473Z,1.83
2022-08-28T08:32:22.976Z,1.73
2022-08-28T08:34:29.382Z,1.80
2022-08-28T08:36:36.137Z,1.67
2022-08-28T08:38:41.340Z,1.70
2022-08-28T08:40:48.780Z,1.50
2022-08-28T08:42:58.077Z,1.90
2022-08-28T08:45:05.371Z,1.70
2022-08-28T08:47:35.789Z,1.90
2022-08-28T08:49:41.930Z,1.88
2022-08-28T08:51:58.651Z,1.90
2022-08-28T08:54:10.177Z,1.75
2022-08-28T08:56:18.566Z,1.80
2022-08-28T08:58:30.259Z,2.25
2022-08-28T09:00:43.524Z,2.53
2022-08-28T09:03:03.742Z,2.35
2022-08-28T09:05:11.653Z,1.75
2022-08-28T09:07:33.902Z,1.67
2022-08-28T09:09:49.874Z,1.80
2022-08-28T09:12:03.004Z,1.55
2022-08-28T09:14:37.507Z,1.70
2022-08-28T09:16:43.883Z,1.50
2022-08-28T09:18:49.566Z,1.75
2022-08-28T09:20:56.996Z,1.40
2022-08-28T09:23:02.172Z,1.55
2022-08-28T09:25:56.612Z,1.48
2022-08-28T09:28:08.613Z,1.70
2022-08-28T09:30:13.624Z,1.70
2022-08-28T09:32:42.577Z,1.60
2022-08-28T09:35:07.338Z,1.77
2022-08-28T09:37:13.918Z,1.83
2022-08-28T09:39:27.221Z,1.90
2022-08-28T09:41:43.766Z,2.08
2022-08-28T09:43:48.497Z,1.80
2022-08-28T09:46:22.925Z,1.77
2022-08-28T09:48:40.098Z,1.90
2022-08-28T09:50:59.198Z,1.58
2022-08-28T09:53:17.605Z,1.70
2022-08-28T09:55:55.934Z,1.80
2022-08-28T09:58:00.321Z,1.60
2022-08-28T10:00:05.377Z,1.88
2022-08-28T10:02:33.083Z,1.88
2022-08-28T10:04:52.871Z,1.85
2022-08-28T10:07:25.773Z,2.05
2022-08-28T10:10:06.508Z,2.58
2022-08-28T10:12:44.266Z,3.72
2022-08-28T10:15:22.105Z,2.17
2022-08-28T10:17:49.697Z,2.10
2022-08-28T10:20:18.606Z,2.17
2022-08-28T10:22:42.901Z,2.78
2022-08-28T10:25:12.766Z,2.80
2022-08-28T10:27:58.907Z,3.65
2022-08-28T10:30:20.528Z,3.17
2022-08-28T10:33:04.123Z,3.28
2022-08-28T10:35:24.767Z,3.28
2022-08-28T10:37:56.156Z,3.30
2022-08-28T10:40:06.366Z,2.47
2022-08-28T10:42:11.379Z,2.60
2022-08-28T10:44:19.962Z,3.33
2022-08-28T10:46:31.484Z,3.30
2022-08-28T10:48:49.939Z,3.85
2022-08-28T10:50:59.879Z,3.30
2022-08-28T10:53:38.081Z,4.07
2022-08-28T10:56:04.112Z,7.53
2022-08-28T10:58:25.153Z,8.15
2022-08-28T11:00:34.013Z,5.10
2022-08-28T11:02:45.198Z,5.13
2022-08-28T11:04:50.483Z,4.00
2022-08-28T11:07:00.934Z,3.05
2022-08-28T11:09:20.583Z,3.13
2022-08-28T11:11:47.628Z,4.05
2022-08-28T11:13:59.465Z,3.85
2022-08-28T11:16:11.548Z,3.97
2022-08-28T11:18:39.162Z,4.50
2022-08-28T11:20:56.986Z,5.00
2022-08-28T11:23:18.451Z,4.28
2022-08-28T11:25:44.967Z,4.25
2022-08-28T11:28:24.895Z,4.25
2022-08-28T11:30:33.910Z,4.45
2022-08-28T11:32:53.609Z,4.57
2022-08-28T11:35:32.237Z,4.95
2022-08-28T11:37:44.411Z,5.20
2022-08-28T11:39:51.739Z,6.73
2022-08-28T11:42:28.414Z,6.05
2022-08-28T11:44:46.895Z,6.38
2022-08-28T11:46:52.585Z,11.93
2022-08-28T11:49:02.861Z,15.20
2022-08-28T11:51:39.567Z,15.27
2022-08-28T11:54:18.937Z,18.27
2022-08-28T11:57:03.273Z,20.92
2022-08-28T11:59:42.407Z,20.60
2022-08-28T12:01:48.969Z,17.10
2022-08-28T12:04:16.494Z,19.17
2022-08-28T12:06:34.229Z,18.00
2022-08-28T12:09:05.619Z,18.42
2022-08-28T12:11:10.161Z,23.15
2022-08-28T12:13:15.902Z,22.80
2022-08-28T12:15:40.876Z,21.73
2022-08-28T12:17:47.583Z,21.45
2022-08-28T12:20:13.761Z,23.85
2022-08-28T12:22:20.446Z,22.02
2022-08-28T12:24:25.453Z,21.40
2022-08-28T12:26:37.164Z,34.22
2022-08-28T12:29:07.256Z,34.53
2022-08-28T12:31:50.028Z,25.75
2022-08-28T12:34:04.898Z,18.95
2022-08-28T12:36:16.163Z,15.20
2022-08-28T12:38:22.106Z,16.45
2022-08-28T12:40:51.368Z,20.38
2022-08-28T12:43:02.730Z,23.83
2022-08-28T12:45:09.422Z,22.17
2022-08-28T12:47:17.440Z,21.15
2022-08-28T12:49:33.448Z,22.05
2022-08-28T12:51:38.743Z,20.98
2022-08-28T12:53:46.578Z,17.45
2022-08-28T12:55:51.099Z,17.73
2022-08-28T12:57:55.568Z,16.98
2022-08-28T13:00:09.149Z,16.02
2022-08-28T13:02:29.918Z,15.65
2022-08-28T13:04:37.847Z,18.33
2022-08-28T13:06:44.563Z,21.45
2022-08-28T13:08:49.651Z,20.73
2022-08-28T13:10:54.618Z,18.98
2022-08-28T13:13:07.415Z,18.52
2022-08-28T13:15:13.961Z,18.17
2022-08-28T13:17:49.884Z,16.73
2022-08-28T13:20:04.860Z,17.05
2022-08-28T13:22:41.445Z,17.02
2022-08-28T13:25:00.595Z,18.10
2022-08-28T13:27:11.264Z,17.67
2022-08-28T13:29:23.699Z,18.70
2022-08-28T13:31:39.254Z,13.63
2022-08-28T13:33:43.569Z,12.20
2022-08-28T13:35:48.065Z,12.80
2022-08-28T13:37:57.290Z,11.77
2022-08-28T13:40:06.768Z,11.27
2022-08-28T13:42:15.128Z,11.88
2022-08-28T13:44:37.930Z,12.13
2022-08-28T13:46:42.807Z,12.13
2022-08-28T13:48:47.423Z,11.38
2022-08-28T13:51:00.715Z,10.95
2022-08-28T13:53:07.499Z,10.82
2022-08-28T13:55:12.260Z,10.52
2022-08-28T13:57:18.852Z,11.95
2022-08-28T13:59:24.390Z,11.38
2022-08-28T14:01:48.754Z,10.48
2022-08-28T14:03:57.205Z,10.43
2022-08-28T14:06:03.893Z,9.70
2022-08-28T14:08:08.761Z,9.85
2022-08-28T14:10:13.179Z,9.20
2022-08-28T14:12:17.930Z,9.55
2022-08-28T14:14:22.418Z,9.65
2022-08-28T14:16:31.079Z,9.00
2022-08-28T14:18:35.728Z,8.88
2022-08-28T14:20:40.354Z,7.88
2022-08-28T14:22:46.822Z,7.47
2022-08-28T14:24:51.432Z,7.68
2022-08-28T14:26:55.729Z,7.78
2022-08-28T14:29:04.463Z,8.15
2022-08-28T14:31:13.725Z,7.63
2022-08-28T14:33:21.016Z,7.80
2022-08-28T14:35:28.884Z,8.20
2022-08-28T14:37:33.541Z,8.00
2022-08-28T14:39:37.958Z,8.15
2022-08-28T14:41:52.912Z,8.25
2022-08-28T14:43:57.987Z,7.78
2022-08-28T14:46:02.634Z,7.75
2022-08-28T14:48:12.282Z,7.50
2022-08-28T14:50:17.176Z,7.63
2022-08-28T14:52:21.610Z,8.07
2022-08-28T14:54:30.287Z,7.68
2022-08-28T14:56:34.900Z,7.85
2022-08-28T14:58:41.197Z,8.00
2022-08-28T15:00:51.476Z,8.50
2022-08-28T15:02:59.888Z,9.18
2022-08-28T15:05:04.716Z,8.18
2022-08-28T15:07:13.947Z,7.85
2022-08-28T15:09:18.304Z,8.20
2022-08-28T15:11:24.220Z,8.75
2022-08-28T15:13:32.545Z,7.50
2022-08-28T15:15:40.411Z,7.57
2022-08-28T15:17:45.144Z,7.45
2022-08-28T15:19:53.541Z,7.97
2022-08-28T15:21:58.858Z,8.25
2022-08-28T15:24:04.407Z,7.78
2022-08-28T15:26:15.526Z,8.10
2022-08-28T15:28:20.180Z,7.55
2022-08-28T15:30:27.427Z,7.55
2022-08-28T15:32:34.973Z,8.02
2022-08-28T15:34:39.720Z,7.78
2022-08-28T15:36:45.126Z,8.15
2022-08-28T15:39:15.442Z,8.55
2022-08-28T15:41:25.969Z,8.48
2022-08-28T15:43:30.432Z,8.30
2022-08-28T15:45:40.736Z,7.57
2022-08-28T15:47:45.917Z,8.52
2022-08-28T15:49:55.982Z,8.07
2022-08-28T15:52:07.127Z,7.50
2022-08-28T15:54:11.593Z,7.78
2022-08-28T15:56:17.659Z,7.88
2022-08-28T15:58:26.041Z,7.63
2022-08-28T16:00:32.724Z,7.32
2022-08-28T16:02:37.294Z,7.45
2022-08-28T16:04:46.212Z,7.15
2022-08-28T16:06:50.621Z,7.20
2022-08-28T16:09:06.742Z,6.32
2022-08-28T16:11:14.557Z,7.50
2022-08-28T16:13:19.510Z,7.30
2022-08-28T16:15:23.992Z,7.57
2022-08-28T16:17:32.650Z,7.15
2022-08-28T16:19:37.081Z,6.53
2022-08-28T16:21:41.731Z,7.03
2022-08-28T16:23:50.062Z,6.45
2022-08-28T16:25:54.736Z,6.55
2022-08-28T16:27:59.331Z,6.28
2022-08-28T16:30:15.863Z,6.65
2022-08-28T16:32:20.394Z,6.38
2022-08-28T16:34:29.448Z,6.43
2022-08-28T16:36:40.057Z,5.93
2022-08-28T16:38:46.659Z,6.25
2022-08-28T16:40:51.018Z,6.13
2022-08-28T16:42:58.927Z,6.70
2022-08-28T16:45:05.208Z,5.95
2022-08-28T16:47:09.871Z,6.03
2022-08-28T16:49:18.393Z,6.07
2022-08-28T16:51:27.880Z,6.20
2022-08-28T16:53:32.407Z,5.80
2022-08-28T16:55:42.376Z,6.05
2022-08-28T16:57:46.917Z,6.28
2022-08-28T16:59:53.549Z,6.13
2022-08-28T17:02:04.742Z,6.32
2022-08-28T17:04:09.643Z,6.47
2022-08-28T17:06:20.231Z,6.63
2022-08-28T17:08:27.936Z,6.32
2022-08-28T17:10:32.706Z,6.15
2022-08-28T17:12:37.375Z,6.53
2022-08-28T17:14:44.933Z,6.90
2022-08-28T17:16:49.609Z,6.45
2022-08-28T17:18:53.965Z,6.55
2022-08-28T17:21:14.706Z,6.55
2022-08-28T17:23:19.124Z,6.50
2022-08-28T17:25:24.126Z,5.82
2022-08-28T17:27:32.597Z,6.75
2022-08-28T17:29:39.451Z,6.07
2022-08-28T17:31:44.929Z,5.75
2022-08-28T17:33:53.978Z,5.70
2022-08-28T17:36:00.851Z,6.18
2022-08-28T17:38:05.527Z,6.50
2022-08-28T17:40:13.018Z,5.90
2022-08-28T17:42:17.411Z,6.03
2022-08-28T17:44:21.779Z,6.10
2022-08-28T17:46:32.908Z,6.45
2022-08-28T17:48:40.025Z,6.40
2022-08-28T17:50:47.617Z,6.05
2022-08-28T17:52:56.249Z,6.07
2022-08-28T17:55:00.783Z,5.85
2022-08-28T17:57:08.381Z,6.10
2022-08-28T17:59:15.042Z,5.85
2022-08-28T18:01:23.483Z,6.45
2022-08-28T18:03:30.872Z,5.78
2022-08-28T18:05:46.243Z,6.10
2022-08-28T18:07:53.417Z,5.75
2022-08-28T18:09:58.879Z,5.97
2022-08-28T18:12:12.641Z,5.68
2022-08-28T18:14:20.184Z,6.03
2022-08-28T18:16:31.085Z,5.63
2022-08-28T18:18:40.972Z,5.72
2022-08-28T18:20:46.614Z,5.60
2022-08-28T18:22:51.041Z,5.40
2022-08-28T18:24:57.322Z,5.38
2022-08-28T18:27:01.731Z,6.28
2022-08-28T18:29:06.066Z,5.28
2022-08-28T18:31:14.627Z,5.22
2022-08-28T18:33:20.657Z,5.35
2022-08-28T18:35:31.850Z,5.30
2022-08-28T18:37:39.872Z,5.18
2022-08-28T18:39:44.289Z,5.35
2022-08-28T18:41:48.943Z,5.97
2022-08-28T18:44:04.711Z,5.50
2022-08-28T18:46:11.111Z,5.15
2022-08-28T18:48:15.614Z,5.40
2022-08-28T18:50:29.178Z,5.57
2022-08-28T18:52:33.486Z,5.47
2022-08-28T18:54:38.099Z,5.40
2022-08-28T18:56:49.111Z,6.07
2022-08-28T18:58:54.842Z,5.10
2022-08-28T19:00:59.119Z,5.47
2022-08-28T19:03:07.046Z,5.65
2022-08-28T19:05:13.440Z,5.03
2022-08-28T19:07:17.895Z,5.10
2022-08-28T19:09:32.271Z,5.22
2022-08-28T19:11:38.247Z,5.30
2022-08-28T19:13:44.700Z,5.55
2022-08-28T19:15:55.805Z,5.22
2022-08-28T19:18:01.620Z,4.82
2022-08-28T19:20:11.766Z,5.18
2022-08-28T19:22:20.341Z,5.28
2022-08-28T19:24:25.479Z,5.10
2022-08-28T19:26:29.782Z,5.25
2022-08-28T19:28:38.627Z,5.55
2022-08-28T19:30:43.174Z,5.55
2022-08-28T19:32:48.354Z,5.00
2022-08-28T19:34:56.643Z,5.97
2022-08-28T19:37:01.619Z,5.72
2022-08-28T19:39:06.856Z,5.97
2022-08-28T19:41:16.072Z,5.82
2022-08-28T19:43:20.711Z,5.65
2022-08-28T19:45:25.296Z,6.30
2022-08-28T19:47:36.106Z,5.32
2022-08-28T19:49:41.735Z,5.53
2022-08-28T19:51:46.088Z,6.15
2022-08-28T19:53:58.442Z,6.25
2022-08-28T19:56:03.852Z,6.28
2022-08-28T19:58:11.371Z,6.00
2022-08-28T20:00:18.882Z,6.07
2022-08-28T20:02:23.866Z,6.05
2022-08-28T20:04:28.178Z,6.78
2022-08-28T20:06:39.455Z,6.50
2022-08-28T20:08:43.792Z,6.50
2022-08-28T20:10:48.726Z,6.20
2022-08-28T20:12:57.223Z,6.25
2022-08-28T20:15:03.710Z,6.38
2022-08-28T20:17:08.847Z,7.38
2022-08-28T20:19:18.603Z,6.47
2022-08-28T20:21:28.850Z,7.47
2022-08-28T20:23:42.439Z,7.57
2022-08-28T20:25:52.630Z,7.32
2022-08-28T20:28:01.367Z,7.07
2022-08-28T20:30:11.060Z,8.05
2022-08-28T20:32:19.620Z,7.30
2022-08-28T20:34:24.389Z,8.32
2022-08-28T20:36:30.332Z,13.68
2022-08-28T20:38:37.673Z,8.70
2022-08-28T20:40:42.193Z,9.00
2022-08-28T20:42:46.987Z,8.63
2022-08-28T20:44:56.727Z,8.80
2022-08-28T20:47:01.293Z,9.52
2022-08-28T20:49:05.735Z,8.52
2022-08-28T20:51:14.527Z,8.93
2022-08-28T20:53:27.313Z,8.38
2022-08-28T20:55:41.878Z,8.32
2022-08-28T20:57:50.745Z,8.77
2022-08-28T20:59:55.285Z,8.32
2022-08-28T21:02:01.838Z,8.88
2022-08-28T21:04:10.250Z,8.70
2022-08-28T21:06:14.515Z,8.77
2022-08-28T21:08:20.879Z,9.18
2022-08-28T21:10:29.635Z,7.78
2022-08-28T21:12:33.922Z,8.15
2022-08-28T21:14:38.737Z,8.93
2022-08-28T21:16:47.417Z,9.32
2022-08-28T21:19:13.964Z,8.38
2022-08-28T21:21:17.039Z,9.82
2022-08-28T21:23:27.443Z,9.35
2022-08-28T21:25:32.498Z,8.95
2022-08-28T21:27:37.413Z,8.68
2022-08-28T21:29:46.470Z,10.18
2022-08-28T21:31:52.931Z,10.93
2022-08-28T21:33:57.555Z,10.25
2022-08-28T21:36:01.843Z,14.35
2022-08-28T21:38:09.726Z,13.73
2022-08-28T21:40:15.606Z,12.50
2022-08-28T21:42:24.281Z,12.18
2022-08-28T21:44:28.864Z,10.45
2022-08-28T21:46:33.520Z,9.65
2022-08-28T21:48:42.391Z,10.13
2022-08-28T21:50:46.698Z,19.73
2022-08-28T21:52:51.688Z,26.15
2022-08-28T21:55:04.880Z,18.27
2022-08-28T21:57:09.670Z,18.55
2022-08-28T21:59:13.982Z,16.38
2022-08-28T22:01:21.708Z,13.93
2022-08-28T22:03:26.170Z,13.25
2022-08-28T22:05:30.931Z,17.38
2022-08-28T22:07:37.454Z,22.02
2022-08-28T22:09:43.825Z,18.33
2022-08-28T22:11:48.059Z,17.60
2022-08-28T22:13:57.482Z,15.30
2022-08-28T22:16:01.758Z,12.77
2022-08-28T22:18:06.675Z,11.95
2022-08-28T22:20:15.160Z,12.25
2022-08-28T22:22:31.871Z,12.30
2022-08-28T22:24:37.601Z,11.50
2022-08-28T22:26:46.119Z,11.80
2022-08-28T22:28:53.517Z,11.98
2022-08-28T22:30:58.097Z,13.98
2022-08-28T22:33:08.323Z,14.00
2022-08-28T22:35:12.692Z,13.95
2022-08-28T22:37:16.984Z,13.00
2022-08-28T22:39:25.606Z,12.23
2022-08-28T22:41:31.202Z,14.10
2022-08-28T22:43:35.811Z,13.65
2022-08-28T22:45:45.029Z,15.30
2022-08-28T22:47:53.205Z,14.82
2022-08-28T22:49:59.379Z,13.60
2022-08-28T22:52:07.856Z,14.30
2022-08-28T22:54:12.645Z,13.55
2022-08-28T22:56:17.956Z,11.27
2022-08-28T22:58:24.435Z,12.23
2022-08-28T23:00:29.060Z,11.30
2022-08-28T23:02:33.763Z,11.55
2022-08-28T23:04:42.552Z,10.75
2022-08-28T23:06:47.082Z,11.93
2022-08-28T23:08:51.624Z,10.65
2022-08-28T23:11:02.369Z,11.25
2022-08-28T23:13:07.173Z,11.00
2022-08-28T23:15:16.132Z,11.68
2022-08-28T23:17:25.089Z,10.80
2022-08-28T23:19:30.510Z,10.38
2022-08-28T23:21:34.883Z,10.23
2022-08-28T23:23:44.015Z,9.65
2022-08-28T23:25:48.481Z,9.75
2022-08-28T23:27:55.580Z,9.27
2022-08-28T23:30:01.994Z,9.63
2022-08-28T23:32:08.317Z,9.80
2022-08-28T23:34:15.587Z,9.98
2022-08-28T23:36:20.734Z,12.80
2022-08-28T23:38:24.980Z,13.00
2022-08-28T23:40:31.445Z,12.00
2022-08-28T23:42:39.039Z,11.45
2022-08-28T23:44:45.605Z,11.13
2022-08-28T23:46:51.715Z,11.00
2022-08-28T23:48:56.637Z,10.00
2022-08-28T23:51:01.624Z,10.40
2022-08-28T23:53:06.613Z,10.40
2022-08-28T23:55:17.368Z,11.35
2022-08-28T23:57:22.037Z,10.35
2022-08-28T23:59:26.712Z,10.60
